Terminal Aerodrome Forecast
Issued by NWS Blacksburg, VA

Current Version | Previous Version | Text Only | Print | Product List | Glossary Off
Versions: 1 2 3 4 5 6 7 8 9 10 11 12 13 14 15 16 17 18 19 20 21 22 23 24 25 26 27 28 29 30 31 32 33 34 35 36 37 38 39 40 41 42 43 44

000
FTUS41 KRNK 200015 AAA
TAFBLF
TAF AMD
KBLF 200015Z 2000/2024 32006KT P6SM SCT020
     FM200400 30004KT P6SM BKN015
     FM200600 29004KT P6SM BKN010
     FM200900 VRB03KT 2SM BR BKN008
     FM201200 00000KT P6SM SCT250=

USA.gov is the U.S. government's official web portal to all federal, state and local government web resources and services.